createdAt,value
2024-01-05T00:00:49.794Z,3.17
2024-01-05T00:03:17.566Z,3.77
2024-01-05T00:05:45.347Z,3.30
2024-01-05T00:08:13.201Z,3.60
2024-01-05T00:10:40.842Z,3.80
2024-01-05T00:13:09.918Z,3.73
2024-01-05T00:15:37.691Z,3.53
2024-01-05T00:18:07.431Z,3.43
2024-01-05T00:20:35.157Z,3.47
2024-01-05T00:23:02.862Z,3.23
2024-01-05T00:25:30.974Z,2.97
2024-01-05T00:27:58.700Z,3.53
2024-01-05T00:30:27.820Z,3.87
2024-01-05T00:32:55.739Z,3.13
2024-01-05T00:35:23.506Z,4.00
2024-01-05T00:37:51.359Z,3.30
2024-01-05T00:40:19.206Z,3.57
2024-01-05T00:42:47.067Z,4.20
2024-01-05T00:45:14.784Z,4.17
2024-01-05T00:47:43.940Z,3.70
2024-01-05T00:50:11.699Z,3.80
2024-01-05T00:52:39.352Z,3.90
2024-01-05T00:55:07.505Z,3.77
2024-01-05T00:57:35.271Z,3.87
2024-01-05T01:00:03.105Z,4.27
2024-01-05T01:02:30.751Z,5.70
2024-01-05T01:05:00.710Z,5.87
2024-01-05T01:07:28.491Z,4.67
2024-01-05T01:09:56.142Z,4.50
2024-01-05T01:12:23.833Z,3.10
2024-01-05T01:14:51.600Z,3.53
2024-01-05T01:17:19.400Z,3.27
2024-01-05T01:19:47.083Z,3.30
2024-01-05T01:22:16.147Z,3.40
2024-01-05T01:24:43.781Z,3.67
2024-01-05T01:27:11.478Z,3.20
2024-01-05T01:29:39.627Z,3.43
2024-01-05T01:32:08.264Z,3.87
2024-01-05T01:34:36.043Z,3.50
2024-01-05T01:37:04.314Z,4.20
2024-01-05T01:39:33.380Z,4.70
2024-01-05T01:42:01.297Z,3.93
2024-01-05T01:44:29.119Z,3.33
2024-01-05T01:46:58.271Z,4.50
2024-01-05T01:49:26.714Z,3.37
2024-01-05T01:51:55.058Z,3.20
2024-01-05T01:54:22.983Z,3.03
2024-01-05T01:56:52.829Z,3.30
2024-01-05T01:59:20.626Z,3.37
2024-01-05T02:01:48.361Z,3.90
2024-01-05T02:04:17.663Z,2.93
2024-01-05T02:06:46.150Z,2.57
2024-01-05T02:09:14.192Z,3.70
2024-01-05T02:11:42.424Z,3.20
2024-01-05T02:14:11.388Z,3.60
2024-01-05T02:16:39.124Z,2.70
2024-01-05T02:19:06.854Z,3.13
2024-01-05T02:21:38.942Z,3.13
2024-01-05T02:24:08.386Z,3.20
2024-01-05T02:26:36.112Z,3.07
2024-01-05T02:29:04.868Z,3.40
2024-01-05T02:31:32.620Z,3.07
2024-01-05T02:34:00.508Z,3.23
2024-01-05T02:36:28.428Z,3.63
2024-01-05T02:38:56.184Z,3.77
2024-01-05T02:41:25.361Z,3.30
2024-01-05T02:43:52.982Z,3.47
2024-01-05T02:46:20.552Z,3.40
2024-01-05T02:48:48.364Z,3.40
2024-01-05T02:51:17.078Z,3.30
2024-01-05T02:53:44.726Z,3.17
2024-01-05T02:56:20.921Z,3.13
2024-01-05T02:58:49.985Z,3.47
2024-01-05T03:01:18.002Z,3.07
2024-01-05T03:03:49.669Z,3.67
2024-01-05T03:06:19.098Z,3.00
2024-01-05T03:08:47.149Z,2.80
2024-01-05T03:11:14.981Z,3.33
2024-01-05T03:13:42.691Z,2.57
2024-01-05T03:16:11.682Z,3.23
2024-01-05T03:18:39.473Z,3.00
2024-01-05T03:21:07.440Z,3.40
2024-01-05T03:23:35.074Z,2.93
2024-01-05T03:26:02.736Z,2.80
2024-01-05T03:28:30.457Z,2.70
2024-01-05T03:30:58.222Z,2.80
2024-01-05T03:33:27.527Z,2.47
2024-01-05T03:35:55.670Z,2.63
2024-01-05T03:38:23.422Z,2.87
2024-01-05T03:40:51.513Z,2.57
2024-01-05T03:43:20.199Z,2.90
2024-01-05T03:45:49.171Z,2.50
2024-01-05T03:48:16.941Z,3.00
2024-01-05T03:50:46.170Z,2.50
2024-01-05T03:53:13.958Z,2.90
2024-01-05T03:55:41.642Z,3.50
2024-01-05T03:58:09.279Z,4.10
2024-01-05T04:00:37.094Z,6.27
2024-01-05T04:03:05.723Z,7.43
2024-01-05T04:05:33.517Z,4.53
2024-01-05T04:08:04.406Z,3.97
2024-01-05T04:10:32.099Z,3.40
2024-01-05T04:12:59.797Z,3.10
2024-01-05T04:15:27.502Z,2.53
2024-01-05T04:17:55.461Z,2.20
2024-01-05T04:20:23.238Z,2.50
2024-01-05T04:22:51.075Z,3.17
2024-01-05T04:25:20.216Z,2.67
2024-01-05T04:27:48.292Z,3.77
2024-01-05T04:30:17.265Z,3.47
2024-01-05T04:32:45.810Z,2.87
2024-01-05T04:35:13.552Z,4.10
2024-01-05T04:37:41.229Z,2.90
2024-01-05T04:40:11.820Z,2.50
2024-01-05T04:42:40.942Z,4.10
2024-01-05T04:45:09.260Z,6.37
2024-01-05T04:47:37.033Z,3.13
2024-01-05T04:50:06.028Z,3.10
2024-01-05T04:52:35.648Z,2.80
2024-01-05T04:55:04.436Z,2.33
2024-01-05T04:57:32.417Z,2.20
2024-01-05T05:00:01.714Z,2.37
2024-01-05T05:02:29.594Z,2.70
2024-01-05T05:04:57.350Z,2.30
2024-01-05T05:07:25.177Z,2.87
2024-01-05T05:09:53.014Z,2.53
2024-01-05T05:12:20.792Z,2.40
2024-01-05T05:14:48.573Z,2.97
2024-01-05T05:17:17.628Z,3.20
2024-01-05T05:19:45.383Z,2.27
2024-01-05T05:22:13.143Z,2.50
2024-01-05T05:24:40.878Z,2.30
2024-01-05T05:27:08.654Z,2.50
2024-01-05T05:29:36.379Z,2.23
2024-01-05T05:32:04.367Z,2.53
2024-01-05T05:34:33.431Z,2.73
2024-01-05T05:37:01.261Z,2.00
2024-01-05T05:39:28.964Z,2.77
2024-01-05T05:41:56.846Z,1.90
2024-01-05T05:44:24.733Z,2.17
2024-01-05T05:46:52.408Z,2.50
2024-01-05T05:49:20.155Z,2.43
2024-01-05T05:51:49.207Z,1.77
2024-01-05T05:54:17.149Z,2.20
2024-01-05T05:56:44.837Z,2.10
2024-01-05T05:59:12.520Z,2.00
2024-01-05T06:01:40.325Z,2.60
2024-01-05T06:04:09.309Z,2.07
2024-01-05T06:06:37.279Z,2.60
2024-01-05T06:09:06.936Z,2.63
2024-01-05T06:11:34.639Z,2.20
2024-01-05T06:14:05.346Z,2.23
2024-01-05T06:16:33.041Z,2.60
2024-01-05T06:19:00.813Z,2.90
2024-01-05T06:21:28.599Z,2.27
2024-01-05T06:23:56.354Z,2.50
2024-01-05T06:26:25.426Z,2.30
2024-01-05T06:28:53.086Z,2.17
2024-01-05T06:31:20.818Z,2.27
2024-01-05T06:33:48.607Z,2.50
2024-01-05T06:36:16.358Z,2.53
2024-01-05T06:38:44.061Z,2.20
2024-01-05T06:41:17.413Z,2.63
2024-01-05T06:43:57.483Z,2.00
2024-01-05T06:46:25.209Z,2.33
2024-01-05T06:48:53.178Z,2.10
2024-01-05T06:51:24.343Z,2.17
2024-01-05T06:53:52.119Z,2.10
2024-01-05T06:56:19.958Z,2.40
2024-01-05T06:58:49.033Z,1.93
2024-01-05T07:01:18.915Z,2.43
2024-01-05T07:03:46.798Z,2.53
2024-01-05T07:06:14.704Z,3.23
2024-01-05T07:08:42.842Z,2.70
2024-01-05T07:11:11.044Z,2.57
2024-01-05T07:13:38.658Z,2.47
2024-01-05T07:16:16.903Z,2.47
2024-01-05T07:18:44.727Z,2.90
2024-01-05T07:21:12.904Z,2.70
2024-01-05T07:23:40.693Z,3.10
2024-01-05T07:26:08.433Z,2.93
2024-01-05T07:28:36.111Z,3.43
2024-01-05T07:31:05.425Z,2.57
2024-01-05T07:33:34.914Z,2.57
2024-01-05T07:36:06.433Z,2.87
2024-01-05T07:38:35.443Z,3.77
2024-01-05T07:41:03.500Z,3.80
2024-01-05T07:43:32.225Z,4.37
2024-01-05T07:45:59.893Z,3.53
2024-01-05T07:48:27.775Z,3.80
2024-01-05T07:50:57.137Z,2.67
2024-01-05T07:53:24.921Z,2.43
2024-01-05T07:55:52.796Z,2.70
2024-01-05T07:58:20.459Z,2.80
2024-01-05T08:00:48.478Z,2.30
2024-01-05T08:03:16.376Z,2.77
2024-01-05T08:05:47.228Z,2.20
2024-01-05T08:08:16.711Z,2.50
2024-01-05T08:10:44.687Z,2.63
2024-01-05T08:13:12.473Z,2.50
2024-01-05T08:15:40.191Z,1.77
2024-01-05T08:18:08.150Z,2.50
2024-01-05T08:20:36.025Z,1.97
2024-01-05T08:23:03.900Z,1.93
2024-01-05T08:25:33.036Z,2.33
2024-01-05T08:28:03.312Z,1.73
2024-01-05T08:30:32.097Z,2.20
2024-01-05T08:33:00.196Z,1.83
2024-01-05T08:35:28.074Z,1.80
2024-01-05T08:37:55.901Z,2.53
2024-01-05T08:40:27.238Z,1.83
2024-01-05T08:42:56.586Z,1.87
2024-01-05T08:45:24.390Z,1.90
2024-01-05T08:47:53.654Z,1.83
2024-01-05T08:50:21.476Z,1.70
2024-01-05T08:52:49.873Z,2.27
2024-01-05T08:55:17.839Z,2.00
2024-01-05T08:57:46.012Z,2.20
2024-01-05T09:00:16.247Z,2.07
2024-01-05T09:02:44.789Z,2.17
2024-01-05T09:05:12.563Z,2.20
2024-01-05T09:07:40.284Z,2.33
2024-01-05T09:10:09.805Z,2.17
2024-01-05T09:12:39.369Z,2.07
2024-01-05T09:15:08.998Z,1.70
2024-01-05T09:17:38.123Z,2.53
2024-01-05T09:20:06.765Z,2.00
2024-01-05T09:22:34.535Z,2.33
2024-01-05T09:25:02.122Z,1.70
2024-01-05T09:27:29.771Z,2.10
2024-01-05T09:29:57.445Z,1.70
2024-01-05T09:32:25.559Z,1.73
2024-01-05T09:34:54.649Z,1.90
2024-01-05T09:37:22.272Z,2.30
2024-01-05T09:39:50.007Z,2.00
2024-01-05T09:42:17.903Z,2.03
2024-01-05T09:44:47.564Z,2.80
2024-01-05T09:47:16.586Z,1.80
2024-01-05T09:49:46.226Z,2.00
2024-01-05T09:52:16.341Z,2.20
2024-01-05T09:54:44.381Z,1.70
2024-01-05T09:57:18.906Z,1.53
2024-01-05T09:59:48.190Z,2.00
2024-01-05T10:02:17.932Z,2.23
2024-01-05T10:04:45.982Z,2.40
2024-01-05T10:07:16.708Z,1.77
2024-01-05T10:09:51.846Z,2.20
2024-01-05T10:12:20.096Z,2.00
2024-01-05T10:14:48.279Z,1.60
2024-01-05T10:17:17.021Z,2.17
2024-01-05T10:19:45.314Z,1.90
2024-01-05T10:22:15.758Z,1.87
2024-01-05T10:24:44.159Z,2.40
2024-01-05T10:27:12.940Z,2.43
2024-01-05T10:29:43.729Z,2.00
2024-01-05T10:32:16.425Z,2.10
2024-01-05T10:34:46.153Z,1.93
2024-01-05T10:37:15.845Z,2.17
2024-01-05T10:39:47.228Z,2.30
2024-01-05T10:42:22.304Z,1.87
2024-01-05T10:44:52.254Z,1.40
2024-01-05T10:47:20.789Z,1.50
2024-01-05T10:49:51.346Z,2.37
2024-01-05T10:52:21.598Z,1.60
2024-01-05T10:54:51.337Z,1.73
2024-01-05T10:57:19.608Z,2.07
2024-01-05T10:59:46.621Z,1.50
2024-01-05T11:02:22.546Z,1.50
2024-01-05T11:04:57.191Z,1.27
2024-01-05T11:07:26.937Z,1.30
2024-01-05T11:10:00.264Z,1.83
2024-01-05T11:12:40.487Z,1.67
2024-01-05T11:15:19.631Z,1.50
2024-01-05T11:18:06.696Z,1.60
2024-01-05T11:20:50.816Z,1.37
2024-01-05T11:23:21.804Z,1.60
2024-01-05T11:25:49.606Z,1.70
2024-01-05T11:28:36.056Z,1.70
2024-01-05T11:31:04.115Z,1.70
2024-01-05T11:33:45.610Z,1.23
2024-01-05T11:36:14.206Z,1.63
2024-01-05T11:38:46.531Z,1.20
2024-01-05T11:41:18.116Z,1.40
2024-01-05T11:43:45.974Z,1.50
2024-01-05T11:46:14.819Z,1.37
2024-01-05T11:48:48.001Z,1.17
2024-01-05T11:51:16.017Z,1.67
2024-01-05T11:53:48.499Z,1.30
2024-01-05T11:56:27.180Z,1.03
2024-01-05T11:58:54.854Z,1.20
2024-01-05T12:01:23.325Z,1.27
2024-01-05T12:03:55.285Z,1.17
2024-01-05T12:06:23.159Z,0.93
2024-01-05T12:08:52.237Z,0.90
2024-01-05T12:11:22.047Z,0.80
2024-01-05T12:13:49.896Z,0.90
2024-01-05T12:16:17.662Z,0.87
2024-01-05T12:18:47.842Z,1.60
2024-01-05T12:21:17.539Z,0.90
2024-01-05T12:23:55.981Z,1.07
2024-01-05T12:26:24.854Z,1.03
2024-01-05T12:28:53.051Z,0.90
2024-01-05T12:31:21.222Z,0.67
2024-01-05T12:33:49.440Z,0.90
2024-01-05T12:36:25.778Z,0.67
2024-01-05T12:38:54.990Z,0.57
2024-01-05T12:41:22.878Z,0.60
2024-01-05T12:43:52.652Z,0.70
2024-01-05T12:46:24.141Z,0.50
2024-01-05T12:48:52.714Z,1.00
2024-01-05T12:51:23.632Z,0.67
2024-01-05T12:54:02.676Z,0.40
2024-01-05T12:56:30.648Z,0.60
2024-01-05T12:58:58.317Z,0.70
2024-01-05T13:01:26.444Z,1.17
2024-01-05T13:03:55.327Z,0.80
2024-01-05T13:06:24.673Z,0.60
2024-01-05T13:08:52.738Z,0.90
2024-01-05T13:11:22.528Z,0.83
2024-01-05T13:13:51.613Z,0.70
2024-01-05T13:16:19.693Z,0.80
2024-01-05T13:18:47.822Z,0.83
2024-01-05T13:21:15.795Z,0.70
2024-01-05T13:23:45.047Z,0.80
2024-01-05T13:26:12.906Z,0.70
2024-01-05T13:28:42.558Z,0.90
2024-01-05T13:31:10.836Z,0.73
2024-01-05T13:33:38.817Z,0.77
2024-01-05T13:36:07.738Z,1.20
2024-01-05T13:38:35.436Z,0.93
2024-01-05T13:41:03.140Z,0.50
2024-01-05T13:43:30.784Z,0.53
2024-01-05T13:46:00.467Z,0.83
2024-01-05T13:48:28.222Z,0.80
2024-01-05T13:50:56.027Z,0.77
2024-01-05T13:53:23.790Z,0.67
2024-01-05T13:55:51.414Z,0.50
2024-01-05T13:58:19.055Z,0.53
2024-01-05T14:00:49.296Z,0.90
2024-01-05T14:03:19.011Z,0.90
2024-01-05T14:05:46.963Z,1.00
2024-01-05T14:08:16.570Z,0.47
2024-01-05T14:10:44.199Z,0.73
2024-01-05T14:13:11.930Z,0.70
2024-01-05T14:15:39.605Z,0.70
2024-01-05T14:18:08.028Z,0.77
2024-01-05T14:20:37.245Z,1.00
2024-01-05T14:23:07.445Z,0.70
2024-01-05T14:25:35.279Z,0.67
2024-01-05T14:28:02.989Z,1.03
2024-01-05T14:30:30.804Z,0.77
2024-01-05T14:32:58.883Z,0.67
2024-01-05T14:35:26.563Z,0.77
2024-01-05T14:37:55.686Z,0.70
2024-01-05T14:40:23.592Z,0.80
2024-01-05T14:42:51.284Z,0.80
2024-01-05T14:45:19.008Z,0.67
2024-01-05T14:47:46.723Z,0.83
2024-01-05T14:50:14.439Z,0.80
2024-01-05T14:52:49.293Z,0.70
2024-01-05T14:55:24.412Z,0.80
2024-01-05T14:57:52.068Z,0.93
2024-01-05T15:00:21.963Z,1.00
2024-01-05T15:02:49.895Z,1.10
2024-01-05T15:05:17.832Z,0.50
2024-01-05T15:07:45.476Z,0.80
2024-01-05T15:10:13.754Z,1.00
2024-01-05T15:12:42.836Z,1.57
2024-01-05T15:15:11.148Z,1.27
2024-01-05T15:17:39.520Z,1.30
2024-01-05T15:20:08.504Z,1.23
2024-01-05T15:22:36.177Z,1.40
2024-01-05T15:25:03.907Z,2.00
2024-01-05T15:27:31.663Z,1.50
2024-01-05T15:30:00.845Z,1.37
2024-01-05T15:32:29.154Z,1.40
2024-01-05T15:34:56.943Z,1.30
2024-01-05T15:37:24.582Z,0.90
2024-01-05T15:39:55.090Z,1.20
2024-01-05T15:42:25.556Z,1.20
2024-01-05T15:44:53.422Z,0.93
2024-01-05T15:47:22.477Z,1.53
2024-01-05T15:49:51.710Z,1.87
2024-01-05T15:52:19.580Z,1.80
2024-01-05T15:54:47.607Z,1.90
2024-01-05T15:57:16.825Z,2.30
2024-01-05T15:59:44.569Z,2.17
2024-01-05T16:02:12.930Z,2.10
2024-01-05T16:04:43.872Z,1.63
2024-01-05T16:07:11.596Z,1.17
2024-01-05T16:09:39.235Z,1.00
2024-01-05T16:12:07.433Z,1.40
2024-01-05T16:14:35.210Z,1.47
2024-01-05T16:17:02.958Z,2.13
2024-01-05T16:19:33.128Z,2.80
2024-01-05T16:22:02.215Z,2.53
2024-01-05T16:24:30.015Z,2.27
2024-01-05T16:26:57.769Z,2.60
2024-01-05T16:29:25.386Z,3.07
2024-01-05T16:31:53.118Z,3.10
2024-01-05T16:34:21.037Z,3.03
2024-01-05T16:36:48.971Z,3.27
2024-01-05T16:39:18.539Z,2.20
2024-01-05T16:41:46.389Z,1.87
2024-01-05T16:44:14.067Z,1.90
2024-01-05T16:46:41.659Z,2.17
2024-01-05T16:49:09.440Z,3.10
2024-01-05T16:51:37.204Z,2.20
2024-01-05T16:54:05.582Z,1.90
2024-01-05T16:56:45.689Z,1.93
2024-01-05T16:59:16.043Z,1.47
2024-01-05T17:01:43.786Z,1.77
2024-01-05T17:04:11.699Z,1.20
2024-01-05T17:06:41.789Z,6.17
2024-01-05T17:09:10.474Z,5.87
2024-01-05T17:11:39.626Z,4.80
2024-01-05T17:14:07.372Z,3.83
2024-01-05T17:16:35.020Z,3.10
2024-01-05T17:19:02.891Z,3.77
2024-01-05T17:21:30.782Z,2.90
2024-01-05T17:23:58.530Z,3.03
2024-01-05T17:26:27.006Z,2.60
2024-01-05T17:28:58.052Z,2.00
2024-01-05T17:31:25.739Z,2.00
2024-01-05T17:33:53.554Z,2.10
2024-01-05T17:36:27.706Z,1.97
2024-01-05T17:38:55.636Z,1.73
2024-01-05T17:41:23.300Z,2.10
2024-01-05T17:43:51.117Z,1.57
2024-01-05T17:46:20.137Z,1.33
2024-01-05T17:48:47.890Z,1.27
2024-01-05T17:51:15.733Z,1.70
2024-01-05T17:53:44.837Z,3.10
2024-01-05T17:56:21.553Z,2.17
2024-01-05T17:58:49.939Z,1.50
2024-01-05T18:01:17.893Z,1.60
2024-01-05T18:03:47.093Z,1.83
2024-01-05T18:06:15.382Z,1.60
2024-01-05T18:08:43.182Z,1.60
2024-01-05T18:11:10.885Z,1.50
2024-01-05T18:13:38.571Z,1.77
2024-01-05T18:16:07.652Z,1.63
2024-01-05T18:18:39.474Z,1.60
2024-01-05T18:21:08.768Z,1.27
2024-01-05T18:23:36.539Z,1.70
2024-01-05T18:26:04.359Z,1.50
2024-01-05T18:28:32.133Z,2.20
2024-01-05T18:30:59.957Z,4.27
2024-01-05T18:33:27.765Z,6.43
2024-01-05T18:35:55.487Z,8.13
2024-01-05T18:38:24.519Z,5.17
2024-01-05T18:40:52.403Z,1.80
2024-01-05T18:43:20.142Z,1.70
2024-01-05T18:45:48.018Z,1.70
2024-01-05T18:48:16.585Z,1.93
2024-01-05T18:50:44.394Z,1.57
2024-01-05T18:53:12.044Z,2.10
2024-01-05T18:55:41.085Z,2.20
2024-01-05T18:58:08.856Z,1.60
2024-01-05T19:00:36.751Z,2.20
2024-01-05T19:03:05.471Z,1.80
2024-01-05T19:05:33.295Z,2.40
2024-01-05T19:08:00.954Z,1.90
2024-01-05T19:10:31.335Z,1.90
2024-01-05T19:13:00.403Z,1.70
2024-01-05T19:15:28.147Z,2.27
2024-01-05T19:17:55.983Z,1.80
2024-01-05T19:20:24.014Z,1.80
2024-01-05T19:22:51.727Z,1.83
2024-01-05T19:25:20.109Z,2.13
2024-01-05T19:27:48.309Z,2.10
2024-01-05T19:30:18.054Z,2.33
2024-01-05T19:32:45.918Z,1.90
2024-01-05T19:35:13.663Z,2.50
2024-01-05T19:37:41.947Z,2.97
2024-01-05T19:40:12.390Z,5.53
2024-01-05T19:42:42.260Z,4.67
2024-01-05T19:45:11.473Z,3.37
2024-01-05T19:47:40.538Z,6.37
2024-01-05T19:50:08.893Z,8.43
2024-01-05T19:52:36.650Z,8.00
2024-01-05T19:55:05.450Z,7.17
2024-01-05T19:57:33.063Z,6.70
2024-01-05T20:00:00.758Z,4.10
2024-01-05T20:02:28.433Z,4.57
2024-01-05T20:04:57.466Z,4.00
2024-01-05T20:07:25.852Z,3.40
2024-01-05T20:09:54.503Z,3.77
2024-01-05T20:12:22.419Z,5.70
2024-01-05T20:14:50.144Z,3.70
2024-01-05T20:17:17.808Z,4.83
2024-01-05T20:19:45.622Z,3.43
2024-01-05T20:22:14.778Z,2.40
2024-01-05T20:24:45.880Z,3.10
2024-01-05T20:27:13.575Z,1.90
2024-01-05T20:29:43.002Z,3.10
2024-01-05T20:32:11.424Z,6.67
2024-01-05T20:34:39.386Z,4.30
2024-01-05T20:37:07.220Z,3.40
2024-01-05T20:39:36.397Z,3.60
2024-01-05T20:42:04.618Z,5.60
2024-01-05T20:44:32.267Z,5.00
2024-01-05T20:47:00.001Z,4.50
2024-01-05T20:49:27.780Z,8.73
2024-01-05T20:51:56.830Z,9.00
2024-01-05T20:54:24.915Z,6.27
2024-01-05T20:56:53.885Z,7.30
2024-01-05T20:59:21.515Z,6.10
2024-01-05T21:01:49.199Z,5.13
2024-01-05T21:04:17.178Z,5.73
2024-01-05T21:06:46.962Z,3.03
2024-01-05T21:09:15.155Z,3.37
2024-01-05T21:11:42.868Z,3.33
2024-01-05T21:14:12.721Z,3.13
2024-01-05T21:16:41.599Z,2.80
2024-01-05T21:19:09.903Z,2.63
2024-01-05T21:21:43.009Z,3.93
2024-01-05T21:24:10.953Z,3.63
2024-01-05T21:26:41.982Z,4.30
2024-01-05T21:29:09.754Z,4.60
2024-01-05T21:31:38.968Z,3.73
2024-01-05T21:34:06.838Z,4.13
2024-01-05T21:36:34.634Z,5.40
2024-01-05T21:39:02.596Z,4.87
2024-01-05T21:41:30.511Z,4.70
2024-01-05T21:43:58.250Z,4.00
2024-01-05T21:46:25.942Z,3.50
2024-01-05T21:48:55.107Z,3.70
2024-01-05T21:51:22.984Z,4.13
2024-01-05T21:53:50.693Z,4.80
2024-01-05T21:56:18.850Z,2.13
2024-01-05T21:58:46.816Z,2.10
2024-01-05T22:01:14.645Z,2.00
2024-01-05T22:03:42.464Z,2.30
2024-01-05T22:06:11.687Z,2.80
2024-01-05T22:08:40.217Z,1.90
2024-01-05T22:11:08.744Z,2.00
2024-01-05T22:13:36.396Z,1.77
2024-01-05T22:16:04.273Z,1.70
2024-01-05T22:18:37.928Z,2.10
2024-01-05T22:21:14.358Z,2.80
2024-01-05T22:23:42.135Z,1.63
2024-01-05T22:26:10.616Z,1.77
2024-01-05T22:28:38.524Z,1.60
2024-01-05T22:31:09.265Z,2.07
2024-01-05T22:33:37.257Z,2.30
2024-01-05T22:36:10.272Z,2.13
2024-01-05T22:38:39.359Z,1.93
2024-01-05T22:41:07.608Z,2.20
2024-01-05T22:43:35.415Z,2.03
2024-01-05T22:46:05.231Z,1.90
2024-01-05T22:48:36.012Z,1.97
2024-01-05T22:51:04.968Z,2.00
2024-01-05T22:53:32.789Z,2.40
2024-01-05T22:56:01.884Z,2.33
2024-01-05T22:58:29.972Z,2.40
2024-01-05T23:00:57.721Z,2.50
2024-01-05T23:03:25.537Z,1.87
2024-01-05T23:05:53.355Z,2.23
2024-01-05T23:08:23.884Z,2.27
2024-01-05T23:10:53.137Z,1.73
2024-01-05T23:13:22.182Z,2.20
2024-01-05T23:15:50.466Z,2.60
2024-01-05T23:18:18.509Z,1.90
2024-01-05T23:20:46.622Z,1.90
2024-01-05T23:23:14.375Z,2.10
2024-01-05T23:25:42.155Z,2.10
2024-01-05T23:28:10.060Z,2.10
2024-01-05T23:30:39.191Z,1.83
2024-01-05T23:33:07.347Z,2.27
2024-01-05T23:35:35.113Z,2.90
2024-01-05T23:38:02.840Z,2.20
2024-01-05T23:40:30.522Z,2.00
2024-01-05T23:42:58.177Z,2.07
2024-01-05T23:45:26.528Z,2.20
2024-01-05T23:47:55.680Z,2.13
2024-01-05T23:50:23.830Z,2.50
2024-01-05T23:52:51.546Z,2.23
2024-01-05T23:55:19.394Z,2.60
2024-01-05T23:57:49.544Z,3.07
